PATK/TKA METAR and TAF weather

Enter ICAO airport designator
Station Type Date Time Source
PATK METAR 2018/12/10 01:53 UTC NOAA

PATK 100153Z 04003KT 5SM -SN BR SCT030 OVC034 M04/M06 A2916 RMK AO2 SNB0058E11B36 SLP881 P0000 T10391056


Station Type Date Time Source
PATK Decoded METAR 2018/12/10 01:53 UTC NOAA

TALKEETNA AIRPORT, AK, United States (PATK) 62-19N 150-06W 109M
Dec 09, 2018 - 08:53 PM EST / 2018.12.10 0153 UTC
Wind: from the NE (040 degrees) at 3 MPH (3 KT):0
Visibility: 5 mile(s):0
Sky conditions: overcast
Weather: light snow; mist
Precipitation last hour: A trace
Temperature: 25.0 F (-3.9 C)
Dew Point: 21.9 F (-5.6 C)
Relative Humidity: 87%
Pressure (altimeter): 29.16 in. Hg (987 hPa)
ob: PATK 100153Z 04003KT 5SM -SN BR SCT030 OVC034 M04/M06 A2916 RMK AO2 SNB0058E11B36 SLP881 P0000 T10391056
cycle: 2

Station Type Date Time Source
PATK TAF 2018/12/09 22:58 UTC NOAA

TAF
AMD PATK 092157Z 0922/1018 VRB04KT P6SM VCSH SCT040 BKN070
TEMPO 0922/0924 BKN025
FM100000 VRB03KT P6SM SCT050


Example: see airport list